Time;durP1;ratioP1;P1;durP2;ratioP2;P2;SDS_P1;SDS_P2;PMS_P1;PMS_P2;Temp;Humidity;BMP_temperature;BMP_pressure;BME280_temperature;BME280_humidity;BME280_pressure;Samples;Min_cycle;Max_cycle;Signal;HPM_P1;HPM_P2
2021/10/31 00:00:08;;;;;;;11.67;7.07;;;11.90;99.90;;;;;;5028904;28;20253;-72
2021/10/31 00:02:35;;;;;;;10.13;6.90;;;11.90;99.90;;;;;;5029896;28;20235;-72
2021/10/31 00:05:02;;;;;;;10.63;6.93;;;11.80;99.90;;;;;;5028945;28;20565;-72
2021/10/31 00:07:29;;;;;;;11.10;7.10;;;11.90;99.90;;;;;;5029657;28;20204;-72
2021/10/31 00:09:56;;;;;;;12.40;7.47;;;12.00;99.90;;;;;;5029284;28;20252;-72
2021/10/31 00:12:23;;;;;;;11.33;7.63;;;12.00;99.90;;;;;;5027536;28;20216;-72
2021/10/31 00:14:51;;;;;;;10.20;7.20;;;12.10;99.90;;;;;;5029558;28;20267;-72
2021/10/31 00:17:19;;;;;;;11.20;7.03;;;12.00;99.90;;;;;;5027197;28;20339;-72
2021/10/31 00:19:46;;;;;;;10.40;6.67;;;11.90;99.90;;;;;;5028388;28;20658;-72
2021/10/31 00:22:14;;;;;;;10.87;6.80;;;11.90;99.90;;;;;;5028782;28;20649;-72
2021/10/31 00:24:41;;;;;;;12.50;7.83;;;11.90;99.90;;;;;;5028996;28;20212;-72
2021/10/31 00:27:08;;;;;;;10.43;6.90;;;12.00;99.90;;;;;;5028829;28;20204;-72
2021/10/31 00:29:35;;;;;;;11.03;7.20;;;12.00;99.90;;;;;;5028947;28;20225;-72
2021/10/31 00:32:04;;;;;;;11.97;7.40;;;12.10;99.90;;;;;;5028895;28;20199;-72
2021/10/31 00:34:32;;;;;;;10.47;7.13;;;12.10;99.90;;;;;;5029212;28;20219;-72
2021/10/31 00:36:59;;;;;;;12.60;7.83;;;12.10;99.90;;;;;;5028999;28;20215;-72
2021/10/31 00:39:26;;;;;;;11.07;7.00;;;12.10;99.90;;;;;;5028195;28;20264;-72
2021/10/31 00:41:53;;;;;;;11.43;7.13;;;12.00;99.90;;;;;;5028841;28;20200;-72
2021/10/31 00:44:20;;;;;;;11.07;6.90;;;12.00;99.90;;;;;;5027884;28;20256;-72
2021/10/31 00:46:48;;;;;;;11.60;7.30;;;12.00;99.90;;;;;;5028967;28;20238;-72
2021/10/31 00:49:16;;;;;;;12.40;7.77;;;11.90;99.90;;;;;;5027446;28;20246;-72
2021/10/31 00:51:43;;;;;;;10.83;7.20;;;11.90;99.90;;;;;;5028408;28;20227;-72
2021/10/31 00:54:11;;;;;;;11.33;7.20;;;11.90;99.90;;;;;;5027946;28;20630;-72
2021/10/31 00:56:38;;;;;;;11.83;7.60;;;11.80;99.90;;;;;;5028719;28;20279;-72
2021/10/31 00:59:05;;;;;;;11.70;7.83;;;11.70;99.90;;;;;;5028998;28;20200;-72
2021/10/31 01:01:33;;;;;;;10.97;7.47;;;11.80;99.90;;;;;;5027508;28;20276;-72
2021/10/31 01:04:00;;;;;;;11.13;7.30;;;11.70;99.90;;;;;;5028265;28;20204;-72
2021/10/31 01:06:57;;;;;;;13.07;7.87;;;11.70;99.90;;;;;;5028534;28;20646;-72
2021/10/31 01:09:28;;;;;;;11.43;7.33;;;11.60;99.90;;;;;;5009351;28;20209;-72
2021/10/31 01:12:11;;;;;;;13.57;7.77;;;11.70;99.90;;;;;;5013776;28;20257;-72
2021/10/31 01:14:55;;;;;;;11.13;7.30;;;11.70;99.90;;;;;;5028213;28;20219;-72
2021/10/31 01:17:37;;;;;;;11.80;7.57;;;11.60;99.90;;;;;;5026430;28;20243;-72
2021/10/31 01:20:14;;;;;;;11.50;7.63;;;11.60;99.90;;;;;;5026198;28;20204;-72
2021/10/31 01:23:06;;;;;;;12.43;7.67;;;11.70;99.90;;;;;;5027228;28;20302;-72
2021/10/31 01:26:09;;;;;;;12.07;7.53;;;11.80;99.90;;;;;;5029441;28;20192;-72
2021/10/31 01:29:07;;;;;;;13.47;8.60;;;11.70;99.90;;;;;;5011997;28;20227;-72
2021/10/31 01:31:41;;;;;;;12.63;8.33;;;11.80;99.90;;;;;;5016692;28;20558;-72
2021/10/31 01:34:20;;;;;;;12.40;7.73;;;11.80;99.90;;;;;;5029120;28;20298;-72
2021/10/31 01:36:57;;;;;;;13.10;8.30;;;11.90;99.90;;;;;;5028389;28;20669;-72
2021/10/31 01:39:35;;;;;;;12.30;8.30;;;12.00;99.90;;;;;;5030897;28;20249;-72
2021/10/31 01:42:14;;;;;;;13.00;8.07;;;12.30;99.90;;;;;;5029743;28;20239;-72
2021/10/31 01:44:51;;;;;;;12.83;7.90;;;12.40;99.90;;;;;;5031619;28;20204;-72
2021/10/31 01:47:36;;;;;;;12.90;8.30;;;12.40;99.90;;;;;;5030482;28;20551;-72
2021/10/31 01:50:10;;;;;;;11.70;7.93;;;12.40;99.90;;;;;;5031080;28;20208;-72
2021/10/31 01:52:40;;;;;;;12.33;7.93;;;12.40;99.90;;;;;;5031355;28;20295;-72
2021/10/31 01:55:12;;;;;;;12.60;8.30;;;12.40;99.90;;;;;;5030739;28;20622;-72
2021/10/31 01:57:46;;;;;;;11.10;7.77;;;12.40;99.90;;;;;;5031344;28;20272;-72
2021/10/31 02:00:15;;;;;;;12.70;7.53;;;12.40;99.90;;;;;;5029986;28;20223;-72
2021/10/31 02:02:45;;;;;;;13.43;7.00;;;12.40;99.90;;;;;;5011086;28;20205;-72
2021/10/31 02:05:16;;;;;;;10.30;7.17;;;12.50;99.90;;;;;;5018328;28;20208;-72
2021/10/31 02:07:46;;;;;;;10.70;7.67;;;12.40;99.90;;;;;;5031498;28;20206;-72
2021/10/31 02:10:16;;;;;;;10.70;6.93;;;12.50;99.90;;;;;;5030071;28;20627;-72
2021/10/31 02:12:46;;;;;;;11.73;7.90;;;12.50;99.90;;;;;;5030509;28;20214;-72
2021/10/31 02:15:15;;;;;;;11.27;7.57;;;12.50;99.90;;;;;;5030886;28;20729;-72
2021/10/31 02:17:43;;;;;;;12.00;7.50;;;12.50;99.90;;;;;;5030111;28;20204;-72
2021/10/31 02:20:11;;;;;;;10.50;6.90;;;12.50;99.90;;;;;;5030969;28;20200;-72
2021/10/31 02:22:41;;;;;;;12.60;7.77;;;12.40;99.90;;;;;;5030627;28;20196;-72
2021/10/31 02:25:11;;;;;;;10.00;7.13;;;12.30;99.90;;;;;;5030211;28;20216;-72
2021/10/31 02:27:42;;;;;;;9.77;6.83;;;12.30;99.90;;;;;;5030959;28;20240;-72
2021/10/31 02:30:10;;;;;;;11.30;7.37;;;12.30;99.90;;;;;;5029556;28;20254;-72
2021/10/31 02:32:37;;;;;;;11.13;7.03;;;12.20;99.90;;;;;;5030628;28;20253;-72
2021/10/31 02:35:08;;;;;;;11.60;7.40;;;12.10;99.90;;;;;;5029765;28;20259;-72
2021/10/31 02:37:37;;;;;;;12.40;8.60;;;12.20;99.90;;;;;;5030746;28;20203;-72
2021/10/31 02:40:05;;;;;;;11.97;7.60;;;12.30;99.90;;;;;;5030432;28;20204;-72
2021/10/31 02:42:35;;;;;;;11.13;7.70;;;12.30;99.90;;;;;;5030806;28;20261;-72
2021/10/31 02:45:02;;;;;;;13.13;8.00;;;12.30;99.90;;;;;;5058691;27;20235;-72
2021/10/31 02:47:34;;;;;;;12.27;8.40;;;12.40;99.90;;;;;;5056020;27;20299;-72
2021/10/31 02:50:01;;;;;;;11.00;7.43;;;12.40;99.90;;;;;;5042086;27;20253;-72
2021/10/31 02:52:37;;;;;;;11.67;7.70;;;12.40;99.90;;;;;;5040103;27;20259;-72
2021/10/31 02:55:13;;;;;;;13.47;8.23;;;12.30;99.90;;;;;;5092019;27;20673;-72
2021/10/31 02:57:49;;;;;;;13.17;8.13;;;12.30;99.90;;;;;;5044060;27;20249;-72
2021/10/31 03:00:18;;;;;;;12.60;8.30;;;12.40;99.90;;;;;;5044846;27;20208;-72
2021/10/31 03:02:46;;;;;;;12.70;8.20;;;12.40;99.90;;;;;;5038900;27;20249;-72
2021/10/31 03:05:14;;;;;;;12.80;8.27;;;12.40;99.90;;;;;;5047148;27;20220;-72
2021/10/31 03:07:42;;;;;;;11.90;8.27;;;12.30;99.90;;;;;;5050958;27;20283;-72
2021/10/31 03:10:10;;;;;;;13.73;8.83;;;12.30;99.90;;;;;;5043949;27;20204;-72
2021/10/31 03:12:37;;;;;;;12.80;8.53;;;12.30;99.90;;;;;;5038218;27;20206;-72
2021/10/31 03:15:06;;;;;;;13.37;9.10;;;12.40;99.90;;;;;;5027963;27;20265;-72
2021/10/31 03:17:34;;;;;;;14.33;9.10;;;12.40;99.90;;;;;;5051405;27;20196;-72
2021/10/31 03:20:02;;;;;;;12.23;8.87;;;12.30;99.90;;;;;;5057458;27;20199;-72
2021/10/31 03:22:31;;;;;;;13.60;9.43;;;12.30;99.90;;;;;;5039698;27;20215;-72
2021/10/31 03:24:58;;;;;;;12.93;9.00;;;12.30;99.90;;;;;;5048682;27;20613;-72
2021/10/31 03:27:25;;;;;;;13.87;9.47;;;12.30;99.90;;;;;;5049359;27;20208;-72
2021/10/31 03:29:52;;;;;;;12.67;9.03;;;12.30;99.90;;;;;;5044290;27;20670;-72
2021/10/31 03:32:21;;;;;;;16.50;9.40;;;12.30;99.90;;;;;;5042380;27;20212;-72
2021/10/31 03:34:48;;;;;;;15.40;9.33;;;12.30;99.90;;;;;;5063671;27;20257;-72
2021/10/31 03:37:16;;;;;;;12.33;8.60;;;12.20;99.90;;;;;;5064449;27;20211;-72
2021/10/31 03:39:43;;;;;;;14.33;9.50;;;12.20;99.90;;;;;;5056229;27;20204;-72
2021/10/31 03:42:10;;;;;;;12.63;8.73;;;12.30;99.90;;;;;;5035594;27;20243;-72
2021/10/31 03:44:47;;;;;;;15.80;9.80;;;12.30;99.90;;;;;;5053510;27;20277;-72
2021/10/31 03:47:14;;;;;;;14.30;9.43;;;12.30;99.90;;;;;;5045684;27;20211;-72
2021/10/31 03:49:43;;;;;;;14.23;9.73;;;12.20;99.90;;;;;;5031522;28;20204;-72
2021/10/31 03:52:11;;;;;;;13.60;8.93;;;12.20;99.90;;;;;;5055105;27;20284;-72
2021/10/31 03:54:38;;;;;;;14.23;9.27;;;12.20;99.90;;;;;;5054052;27;20218;-72
2021/10/31 03:57:06;;;;;;;14.83;9.87;;;12.20;99.90;;;;;;5053106;27;20224;-72
2021/10/31 03:59:33;;;;;;;15.13;9.93;;;12.10;99.90;;;;;;5054443;27;20192;-72
2021/10/31 04:02:00;;;;;;;14.57;9.63;;;12.10;99.90;;;;;;5028374;28;20196;-72
2021/10/31 04:04:27;;;;;;;15.60;9.67;;;12.00;99.90;;;;;;5043679;27;20204;-72
2021/10/31 04:06:55;;;;;;;13.40;9.77;;;11.90;99.90;;;;;;5069398;27;20208;-72
2021/10/31 04:09:22;;;;;;;14.40;9.50;;;11.90;99.90;;;;;;5040296;28;20717;-72
2021/10/31 04:11:49;;;;;;;14.30;9.53;;;11.80;99.90;;;;;;5067506;27;20245;-72
2021/10/31 04:14:17;;;;;;;14.37;10.07;;;11.70;99.90;;;;;;5039136;27;20204;-72
2021/10/31 04:16:44;;;;;;;15.03;9.23;;;11.70;99.90;;;;;;5040296;27;20201;-72
2021/10/31 04:19:11;;;;;;;14.07;9.27;;;11.40;99.90;;;;;;5067886;27;20204;-72
2021/10/31 04:21:38;;;;;;;12.93;9.40;;;11.30;99.90;;;;;;5040493;28;20196;-72
2021/10/31 04:24:07;;;;;;;14.07;9.43;;;11.20;99.90;;;;;;5066671;27;20657;-72
2021/10/31 04:26:34;;;;;;;15.80;10.03;;;11.30;99.90;;;;;;5050848;27;20208;-72
2021/10/31 04:29:02;;;;;;;15.20;9.30;;;11.30;99.90;;;;;;5049948;27;20240;-72
2021/10/31 04:31:29;;;;;;;15.43;10.43;;;11.20;99.90;;;;;;5033156;27;20208;-72
2021/10/31 04:33:56;;;;;;;13.13;9.13;;;11.20;99.90;;;;;;5051668;28;20232;-72
2021/10/31 04:36:24;;;;;;;15.27;10.20;;;11.20;99.90;;;;;;5062989;27;20220;-72
2021/10/31 04:38:55;;;;;;;15.40;9.60;;;11.20;99.90;;;;;;5044226;28;20207;-72
2021/10/31 04:41:25;;;;;;;15.27;9.43;;;11.10;99.90;;;;;;5034203;28;20303;-72
2021/10/31 04:43:52;;;;;;;15.73;9.73;;;11.10;99.90;;;;;;5036320;28;20641;-72
2021/10/31 04:46:19;;;;;;;17.40;10.37;;;10.90;99.90;;;;;;5053248;28;20219;-72
2021/10/31 04:48:46;;;;;;;15.40;10.23;;;10.90;99.90;;;;;;5036754;28;20196;-72
2021/10/31 04:51:13;;;;;;;15.27;10.13;;;10.90;99.90;;;;;;5052756;28;20253;-72
2021/10/31 04:53:41;;;;;;;15.00;10.37;;;10.90;99.90;;;;;;5042083;28;20934;-72
2021/10/31 04:56:08;;;;;;;15.07;9.73;;;10.70;99.90;;;;;;5077401;27;20284;-72
2021/10/31 04:58:36;;;;;;;17.70;10.30;;;10.70;99.90;;;;;;5065787;27;20263;-72
2021/10/31 05:01:05;;;;;;;16.53;10.40;;;10.60;99.90;;;;;;5042486;27;20207;-72
2021/10/31 05:03:32;;;;;;;18.00;11.13;;;10.60;99.90;;;;;;5045877;27;20574;-72
2021/10/31 05:05:59;;;;;;;15.97;10.37;;;10.50;99.90;;;;;;5065791;27;20302;-72
2021/10/31 05:08:27;;;;;;;16.27;10.90;;;10.40;99.90;;;;;;5089234;27;20215;-72
2021/10/31 05:10:54;;;;;;;15.43;9.63;;;10.30;99.90;;;;;;5054571;27;20206;-72
2021/10/31 05:13:21;;;;;;;14.33;10.23;;;10.40;99.90;;;;;;5064245;27;20604;-72
2021/10/31 05:15:50;;;;;;;16.13;10.10;;;10.40;99.90;;;;;;5046198;27;20223;-72
2021/10/31 05:18:17;;;;;;;15.77;10.10;;;10.30;99.90;;;;;;5059863;27;20204;-72
2021/10/31 05:20:44;;;;;;;15.57;10.10;;;10.40;99.90;;;;;;5038396;27;20203;-72
2021/10/31 05:23:11;;;;;;;16.20;10.27;;;10.50;99.90;;;;;;5057397;27;20649;-72
2021/10/31 05:25:39;;;;;;;14.10;9.70;;;10.50;99.90;;;;;;5038373;27;20613;-72
2021/10/31 05:28:06;;;;;;;14.87;9.77;;;10.40;99.90;;;;;;5053827;27;20259;-72
2021/10/31 05:30:34;;;;;;;13.70;9.27;;;10.30;99.90;;;;;;5059833;27;20248;-72
2021/10/31 05:33:02;;;;;;;14.57;9.40;;;10.20;99.90;;;;;;5063438;27;20253;-72
2021/10/31 05:35:30;;;;;;;17.03;10.27;;;10.20;99.90;;;;;;5050242;27;20204;-72
2021/10/31 05:37:58;;;;;;;19.23;10.47;;;10.20;99.90;;;;;;5043339;27;20398;-72
2021/10/31 05:40:26;;;;;;;13.90;9.47;;;10.30;99.90;;;;;;5069529;27;20654;-72
2021/10/31 05:42:54;;;;;;;16.10;10.10;;;10.30;99.90;;;;;;5030932;28;20291;-72
2021/10/31 05:45:21;;;;;;;14.53;9.83;;;10.30;99.90;;;;;;5031488;28;20204;-72
2021/10/31 05:47:48;;;;;;;34.23;22.83;;;10.40;99.90;;;;;;5030642;28;20212;-72
2021/10/31 05:50:18;;;;;;;22.80;14.20;;;10.40;99.90;;;;;;5030586;28;20200;-71
2021/10/31 05:52:46;;;;;;;20.23;12.63;;;10.30;99.90;;;;;;5031136;28;20253;-72
2021/10/31 05:55:16;;;;;;;14.70;10.00;;;10.40;99.90;;;;;;5031677;28;20204;-72
2021/10/31 05:57:43;;;;;;;15.03;9.67;;;10.30;99.90;;;;;;5031293;28;20284;-72
2021/10/31 06:00:13;;;;;;;14.17;9.60;;;10.20;99.90;;;;;;5031251;28;20537;-72
2021/10/31 06:02:40;;;;;;;16.10;9.77;;;10.10;99.90;;;;;;5031864;28;20208;-72
2021/10/31 06:05:08;;;;;;;18.27;12.03;;;10.20;99.90;;;;;;5030125;28;20537;-72
2021/10/31 06:07:36;;;;;;;17.63;11.40;;;10.60;99.90;;;;;;5031507;28;20203;-72
2021/10/31 06:10:04;;;;;;;18.97;12.63;;;10.70;99.90;;;;;;5029570;28;20826;-72
2021/10/31 06:12:31;;;;;;;20.80;12.50;;;10.70;99.90;;;;;;5031066;28;20212;-72
2021/10/31 06:14:58;;;;;;;18.53;12.30;;;10.80;99.90;;;;;;5030144;27;20203;-72
2021/10/31 06:17:25;;;;;;;15.40;10.53;;;10.80;99.90;;;;;;5030406;28;20247;-71
2021/10/31 06:19:52;;;;;;;15.80;10.63;;;10.70;99.90;;;;;;5044125;27;20211;-72
2021/10/31 06:22:19;;;;;;;17.93;11.67;;;10.50;99.90;;;;;;5061539;27;20249;-72
2021/10/31 06:24:48;;;;;;;18.23;12.03;;;10.50;99.90;;;;;;5067017;27;20215;-72
2021/10/31 06:27:15;;;;;;;17.53;11.57;;;10.50;99.90;;;;;;5048835;27;20204;-72
2021/10/31 06:29:42;;;;;;;18.07;13.07;;;10.40;99.90;;;;;;5061331;27;20193;-72
2021/10/31 06:32:09;;;;;;;20.00;12.87;;;10.40;99.90;;;;;;5048964;27;20257;-72
2021/10/31 06:34:36;;;;;;;20.20;13.77;;;10.50;99.90;;;;;;5050414;27;20211;-72
2021/10/31 06:37:03;;;;;;;19.77;13.90;;;10.70;99.90;;;;;;5043974;27;20709;-72
2021/10/31 06:39:30;;;;;;;21.63;13.77;;;10.70;99.90;;;;;;5035909;27;20265;-72
2021/10/31 06:41:59;;;;;;;20.40;13.47;;;10.80;99.90;;;;;;5031104;27;20245;-72
2021/10/31 06:44:26;;;;;;;19.50;13.70;;;10.80;99.90;;;;;;5041792;27;20204;-72
2021/10/31 06:46:53;;;;;;;19.73;13.43;;;10.80;99.90;;;;;;5050174;27;20211;-72
2021/10/31 06:49:20;;;;;;;21.63;13.60;;;10.70;99.90;;;;;;5042774;27;20192;-72
2021/10/31 06:51:47;;;;;;;20.40;13.60;;;10.90;99.90;;;;;;5041455;27;20653;-72
2021/10/31 06:54:15;;;;;;;19.63;13.73;;;10.80;99.90;;;;;;5029484;27;20291;-72
2021/10/31 06:56:42;;;;;;;18.90;12.80;;;10.80;99.90;;;;;;5061148;27;20265;-72
2021/10/31 06:59:10;;;;;;;19.70;13.00;;;10.90;99.90;;;;;;5064749;27;20293;-72
2021/10/31 07:01:37;;;;;;;21.47;14.43;;;10.90;99.90;;;;;;5041160;27;20192;-72
2021/10/31 07:04:07;;;;;;;25.10;15.43;;;11.00;99.90;;;;;;5076483;27;20207;-72
2021/10/31 07:06:34;;;;;;;20.10;13.67;;;11.10;99.90;;;;;;5078638;27;20245;-72
2021/10/31 07:09:02;;;;;;;22.33;14.63;;;11.20;99.90;;;;;;5056273;27;20711;-72
2021/10/31 07:11:29;;;;;;;19.80;13.43;;;11.50;99.90;;;;;;5040710;27;20208;-72
2021/10/31 07:13:56;;;;;;;21.53;14.70;;;11.50;99.90;;;;;;5069661;27;20196;-72
2021/10/31 07:16:24;;;;;;;19.83;14.17;;;11.50;99.90;;;;;;5059654;27;20216;-72
2021/10/31 07:18:52;;;;;;;20.57;13.67;;;11.60;99.90;;;;;;5066387;27;20653;-72
2021/10/31 07:21:19;;;;;;;19.27;13.10;;;11.70;99.90;;;;;;5068666;27;20204;-72
2021/10/31 07:23:46;;;;;;;20.63;13.77;;;11.80;99.90;;;;;;5032708;27;20247;-72
2021/10/31 07:26:14;;;;;;;21.47;14.43;;;11.90;99.90;;;;;;5087088;27;20203;-72
2021/10/31 07:28:40;;;;;;;19.30;13.77;;;11.90;99.90;;;;;;5064961;27;20238;-72
2021/10/31 07:31:11;;;;;;;23.53;15.30;;;11.90;99.90;;;;;;5037819;27;20204;-72
2021/10/31 07:33:40;;;;;;;20.27;13.50;;;12.00;99.90;;;;;;5036186;27;20624;-72
2021/10/31 07:36:07;;;;;;;19.93;13.70;;;12.10;99.90;;;;;;5042843;27;20204;-71
2021/10/31 07:38:38;;;;;;;20.47;13.83;;;12.20;99.90;;;;;;5034044;27;20664;-71
2021/10/31 07:41:05;;;;;;;20.40;14.33;;;12.20;99.90;;;;;;5029932;28;20212;-71
2021/10/31 07:43:33;;;;;;;21.10;14.07;;;12.20;99.90;;;;;;5029723;28;20611;-71
2021/10/31 07:46:00;;;;;;;19.77;12.83;;;12.30;99.90;;;;;;5016849;28;20204;-71
2021/10/31 07:48:27;;;;;;;18.57;13.50;;;12.30;99.90;;;;;;5028626;28;20199;-71
2021/10/31 07:50:55;;;;;;;18.23;12.07;;;12.30;99.90;;;;;;5029148;28;20256;-71
2021/10/31 07:53:22;;;;;;;18.20;13.07;;;12.30;99.90;;;;;;5029706;28;20200;-71
2021/10/31 07:55:51;;;;;;;18.43;12.20;;;12.40;99.90;;;;;;5028643;28;20203;-72
2021/10/31 07:58:21;;;;;;;17.23;12.17;;;12.40;99.90;;;;;;5029596;28;20324;-71
2021/10/31 08:00:49;;;;;;;18.47;12.80;;;12.50;99.90;;;;;;5028835;28;20290;-72
2021/10/31 08:03:16;;;;;;;20.00;12.30;;;12.50;99.90;;;;;;5029759;28;20208;-71
2021/10/31 08:05:44;;;;;;;21.87;12.90;;;12.50;99.90;;;;;;5029772;28;20596;-72
2021/10/31 08:08:12;;;;;;;17.93;12.13;;;12.70;99.90;;;;;;5029790;28;20641;-71
2021/10/31 08:10:39;;;;;;;17.73;12.13;;;12.70;99.90;;;;;;5028313;28;20204;-72
2021/10/31 08:13:06;;;;;;;17.73;12.17;;;13.00;99.90;;;;;;5028659;28;20256;-71
2021/10/31 08:15:34;;;;;;;16.37;11.20;;;13.30;99.90;;;;;;5028510;28;20665;-71
2021/10/31 08:18:01;;;;;;;18.40;13.13;;;13.30;99.90;;;;;;5029382;28;20228;-71
2021/10/31 08:20:29;;;;;;;16.77;12.03;;;13.50;99.90;;;;;;5028838;28;20253;-71
2021/10/31 08:22:56;;;;;;;15.93;11.67;;;13.60;99.90;;;;;;5028754;28;20215;-71
2021/10/31 08:25:24;;;;;;;18.43;11.97;;;13.50;99.90;;;;;;5028309;28;20200;-71
2021/10/31 08:27:53;;;;;;;16.67;11.70;;;13.50;99.90;;;;;;5028444;28;20599;-71
2021/10/31 08:30:28;;;;;;;15.30;11.03;;;13.40;99.90;;;;;;5028669;28;20209;-71
2021/10/31 08:32:56;;;;;;;17.17;12.43;;;13.40;99.90;;;;;;5028405;28;20677;-71
2021/10/31 08:35:24;;;;;;;16.83;11.73;;;13.40;99.90;;;;;;5028765;28;20670;-71
2021/10/31 08:37:51;;;;;;;16.40;12.23;;;13.30;99.90;;;;;;5029332;28;20587;-71
2021/10/31 08:40:17;;;;;;;16.50;11.83;;;13.40;99.90;;;;;;5028284;28;20260;-72
2021/10/31 08:42:46;;;;;;;15.77;11.47;;;13.50;99.90;;;;;;5028278;28;20231;-71
2021/10/31 08:45:13;;;;;;;15.37;11.67;;;13.60;99.90;;;;;;5028106;28;20200;-71
2021/10/31 08:47:40;;;;;;;16.57;11.67;;;13.90;99.90;;;;;;5028170;28;20295;-71
2021/10/31 08:50:09;;;;;;;16.40;11.73;;;14.10;99.90;;;;;;5029018;28;20199;-71
2021/10/31 08:52:37;;;;;;;17.23;11.77;;;14.20;99.90;;;;;;5028375;28;20226;-77
2021/10/31 08:58:11;;;;;;;15.17;10.90;;;14.50;99.90;;;;;;5100710;22;20324;-71
2021/10/31 09:00:38;;;;;;;13.73;10.37;;;14.70;99.90;;;;;;5092241;28;20206;-71
2021/10/31 09:03:05;;;;;;;15.43;10.80;;;14.90;99.90;;;;;;5091312;28;20664;-71
2021/10/31 09:05:33;;;;;;;10.17;7.43;;;15.00;99.90;;;;;;5092194;28;20201;-71
2021/10/31 09:08:01;;;;;;;10.30;7.27;;;15.10;99.90;;;;;;5091251;28;20255;-71
2021/10/31 09:10:29;;;;;;;7.20;5.73;;;15.30;99.90;;;;;;5071701;28;20289;-71
2021/10/31 09:12:56;;;;;;;8.30;6.03;;;15.20;99.90;;;;;;5084186;28;20204;-71
2021/10/31 09:15:25;;;;;;;8.07;5.33;;;15.50;99.90;;;;;;5075629;28;20209;-71
2021/10/31 09:17:52;;;;;;;6.10;5.10;;;15.40;99.90;;;;;;5078400;28;20218;-71
2021/10/31 09:20:19;;;;;;;6.93;5.33;;;15.40;99.90;;;;;;5087913;28;20205;-72
2021/10/31 09:22:47;;;;;;;7.07;5.07;;;15.40;99.90;;;;;;5086828;28;20216;-72
2021/10/31 09:25:14;;;;;;;7.43;4.60;;;15.60;99.90;;;;;;5075661;28;20210;-72
2021/10/31 09:27:41;;;;;;;4.60;3.93;;;15.70;99.90;;;;;;5073649;28;20197;-72
2021/10/31 09:30:09;;;;;;;5.57;4.23;;;15.80;99.90;;;;;;5086991;28;20222;-72
2021/10/31 09:32:49;;;;;;;5.73;4.27;;;15.90;99.90;;;;;;5088372;28;20208;-72
2021/10/31 09:35:17;;;;;;;6.10;4.17;;;16.10;99.90;;;;;;5078311;28;20198;-71
2021/10/31 09:37:45;;;;;;;4.73;4.07;;;16.10;99.90;;;;;;5077509;28;20210;-71
2021/10/31 09:40:13;;;;;;;5.47;4.03;;;16.10;99.90;;;;;;5091681;28;20648;-72
2021/10/31 09:42:40;;;;;;;4.77;4.27;;;16.00;99.90;;;;;;5082549;28;20575;-71
2021/10/31 09:45:09;;;;;;;7.23;4.53;;;16.10;99.90;;;;;;5091044;28;20308;-71
2021/10/31 09:47:36;;;;;;;6.20;4.37;;;16.20;99.90;;;;;;5083110;28;20568;-72
2021/10/31 09:50:05;;;;;;;4.28;3.72;;;16.40;99.90;;;;;;5095232;28;20202;-72
2021/10/31 09:52:32;;;;;;;6.63;4.25;;;16.20;99.90;;;;;;5081243;28;20213;-72
2021/10/31 09:54:59;;;;;;;5.47;4.30;;;16.30;99.90;;;;;;5079013;28;20216;-71
2021/10/31 09:57:26;;;;;;;4.47;4.05;;;16.20;99.90;;;;;;5083239;28;20227;-72
2021/10/31 09:59:54;;;;;;;5.13;4.13;;;16.30;99.90;;;;;;5095276;28;20248;-71
2021/10/31 10:02:45;;;;;;;5.45;4.10;;;16.30;99.90;;;;;;5094890;28;20209;-71
2021/10/31 10:05:20;;;;;;;6.07;4.07;;;16.20;99.90;;;;;;5091025;28;20287;-71
2021/10/31 10:08:07;;;;;;;4.50;4.10;;;16.00;99.90;;;;;;5083734;28;20194;-71
2021/10/31 10:10:40;;;;;;;4.45;3.97;;;16.00;99.90;;;;;;5074633;28;20213;-72
2021/10/31 10:13:20;;;;;;;4.05;3.65;;;16.00;99.90;;;;;;5075763;28;20198;-71
2021/10/31 10:15:48;;;;;;;4.05;3.65;;;16.10;99.90;;;;;;5074402;28;20209;-71
2021/10/31 10:18:29;;;;;;;4.50;3.72;;;15.90;99.90;;;;;;5082065;28;20263;-72
2021/10/31 10:21:15;;;;;;;4.05;3.60;;;16.00;99.90;;;;;;5090824;28;20593;-72
2021/10/31 10:23:50;;;;;;;5.40;3.80;;;15.90;99.90;;;;;;5074439;28;20195;-71
2021/10/31 10:26:31;;;;;;;4.72;4.03;;;16.00;99.90;;;;;;5073703;28;20202;-72
2021/10/31 10:29:03;;;;;;;4.20;3.70;;;16.10;99.90;;;;;;5086894;28;20224;-71
2021/10/31 10:31:30;;;;;;;5.75;3.88;;;16.00;99.90;;;;;;5089015;28;20198;-72
2021/10/31 10:33:59;;;;;;;4.85;3.85;;;16.10;99.90;;;;;;5080546;28;20202;-71
2021/10/31 10:36:27;;;;;;;7.93;3.28;;;16.20;99.90;;;;;;5084102;28;20232;-72
2021/10/31 10:39:03;;;;;;;4.28;3.40;;;16.40;99.90;;;;;;5092785;28;20673;-71
2021/10/31 10:41:44;;;;;;;4.20;3.50;;;16.50;99.90;;;;;;5093250;28;20643;-71
2021/10/31 10:44:27;;;;;;;5.07;3.50;;;16.70;99.90;;;;;;5089679;28;20296;-72
2021/10/31 10:46:57;;;;;;;4.23;3.03;;;16.80;99.90;;;;;;5090787;28;20284;-72
2021/10/31 10:49:25;;;;;;;3.17;2.88;;;16.90;99.90;;;;;;5089688;28;20202;-72
2021/10/31 10:52:29;;;;;;;3.40;3.10;;;16.80;99.90;;;;;;5092028;28;20197;-72
2021/10/31 10:55:09;;;;;;;3.92;3.00;;;16.80;99.90;;;;;;5092574;28;20206;-71
2021/10/31 10:57:37;;;;;;;3.90;2.67;;;16.80;99.90;;;;;;5090740;28;20221;-71
2021/10/31 11:00:12;;;;;;;3.72;2.90;;;16.80;99.90;;;;;;5090137;28;20201;-71
2021/10/31 11:02:39;;;;;;;3.97;3.05;;;16.90;99.90;;;;;;5085110;28;20196;-71
2021/10/31 11:05:08;;;;;;;2.95;2.40;;;17.00;99.90;;;;;;5082806;28;20645;-71
2021/10/31 11:07:43;;;;;;;3.10;2.72;;;17.00;99.90;;;;;;5082343;28;20204;-71
2021/10/31 11:10:16;;;;;;;2.97;2.67;;;17.10;99.90;;;;;;5091229;28;20205;-71
2021/10/31 11:12:43;;;;;;;3.47;2.83;;;17.00;99.90;;;;;;5091614;28;20198;-71
2021/10/31 11:15:12;;;;;;;3.60;2.20;;;17.40;99.90;;;;;;5094005;28;20200;-71
2021/10/31 11:17:44;;;;;;;2.83;2.58;;;17.40;99.90;;;;;;5090617;28;20221;-71
2021/10/31 11:20:13;;;;;;;2.97;2.78;;;17.40;99.90;;;;;;5092366;28;20201;-71
2021/10/31 11:22:44;;;;;;;5.03;2.90;;;17.20;99.90;;;;;;5089675;28;20209;-72
2021/10/31 11:25:13;;;;;;;2.90;2.60;;;17.20;99.90;;;;;;5092997;28;20214;-72
2021/10/31 11:27:40;;;;;;;4.65;2.65;;;17.10;99.90;;;;;;5090447;28;20193;-72
2021/10/31 11:30:09;;;;;;;2.53;2.33;;;17.20;99.90;;;;;;5088925;28;20582;-72
2021/10/31 11:32:38;;;;;;;4.43;2.63;;;17.10;99.90;;;;;;5093354;28;20579;-71
2021/10/31 11:35:06;;;;;;;2.85;2.55;;;17.30;99.90;;;;;;5092278;28;20212;-71
2021/10/31 11:37:36;;;;;;;3.15;2.58;;;17.40;99.90;;;;;;5092374;28;20225;-71
2021/10/31 11:40:09;;;;;;;3.17;2.85;;;17.30;99.90;;;;;;5092779;28;20201;-73
2021/10/31 11:42:38;;;;;;;4.85;3.00;;;17.20;99.90;;;;;;5093355;28;20201;-72
2021/10/31 11:45:08;;;;;;;6.13;2.78;;;17.20;99.90;;;;;;5093150;28;20198;-72
2021/10/31 11:47:37;;;;;;;3.15;2.80;;;17.20;99.90;;;;;;5091941;28;20558;-72
2021/10/31 11:50:11;;;;;;;5.65;2.67;;;17.10;99.90;;;;;;5091116;28;20198;-72
2021/10/31 11:53:09;;;;;;;3.53;2.60;;;17.20;99.90;;;;;;5085548;28;20200;-72
2021/10/31 11:55:52;;;;;;;3.17;2.55;;;17.20;99.90;;;;;;5087495;28;20675;-72
2021/10/31 11:59:03;;;;;;;2.95;2.58;;;17.30;99.90;;;;;;5086261;28;20233;-72
2021/10/31 12:01:46;;;;;;;3.42;2.30;;;17.40;99.90;;;;;;5091940;28;20197;-72
2021/10/31 12:04:45;;;;;;;3.40;2.50;;;17.70;99.90;;;;;;5091719;28;20209;-72
2021/10/31 12:07:32;;;;;;;2.70;2.50;;;17.60;99.90;;;;;;5083802;28;20255;-74
2021/10/31 12:09:59;;;;;;;3.60;2.83;;;17.60;99.90;;;;;;5091199;28;20213;-72
2021/10/31 12:12:29;;;;;;;2.42;2.22;;;17.70;99.90;;;;;;5091402;28;20194;-72
2021/10/31 12:15:00;;;;;;;3.15;2.33;;;17.50;99.90;;;;;;5083594;28;20205;-70
2021/10/31 12:17:49;;;;;;;2.83;2.60;;;17.70;99.90;;;;;;5086900;28;20229;-71
2021/10/31 12:20:54;;;;;;;3.22;2.42;;;17.60;99.90;;;;;;5091493;28;20205;-72
2021/10/31 12:23:26;;;;;;;2.47;2.13;;;17.50;99.90;;;;;;5090343;28;20205;-72
2021/10/31 12:25:54;;;;;;;3.03;2.38;;;17.70;99.90;;;;;;5090939;28;20296;-72
2021/10/31 12:28:40;;;;;;;2.50;2.30;;;17.60;99.90;;;;;;5091097;28;20252;-71
2021/10/31 12:31:31;;;;;;;2.53;2.33;;;17.60;99.90;;;;;;5091046;28;20198;-71
2021/10/31 12:34:16;;;;;;;3.03;2.72;;;17.50;99.90;;;;;;5090007;28;20784;-71
2021/10/31 12:36:47;;;;;;;2.42;2.22;;;17.50;99.90;;;;;;5090005;28;20202;-72
2021/10/31 12:39:54;;;;;;;3.20;2.50;;;17.50;99.90;;;;;;5089790;28;20225;-72
2021/10/31 12:42:23;;;;;;;3.20;2.25;;;17.50;99.90;;;;;;5087493;28;20202;-72
2021/10/31 12:44:53;;;;;;;2.35;2.20;;;17.50;99.90;;;;;;5090203;28;20194;-72
2021/10/31 12:47:24;;;;;;;2.85;2.10;;;17.50;99.90;;;;;;5090045;28;20213;-71
2021/10/31 12:50:05;;;;;;;2.20;2.00;;;17.50;99.90;;;;;;5091594;28;20616;-71
2021/10/31 12:52:33;;;;;;;3.22;2.00;;;17.50;99.90;;;;;;5089124;28;20232;-72
2021/10/31 12:55:02;;;;;;;4.22;2.15;;;17.50;99.90;;;;;;5091604;28;20197;-72